Time;durP1;ratioP1;P1;durP2;ratioP2;P2;SDS_P1;SDS_P2;PMS_P1;PMS_P2;Temp;Humidity;BMP_temperature;BMP_pressure;BME280_temperature;BME280_humidity;BME280_pressure;Samples;Min_cycle;Max_cycle;Signal;HPM_P1;HPM_P2
2023/05/11 00:00:34;;;;;;;1.70;1.58;;;11.90;99.90;;;;;;5006456;28;20045;-66
2023/05/11 00:02:59;;;;;;;1.88;1.20;;;11.90;99.90;;;;;;5003781;28;20026;-65
2023/05/11 00:05:25;;;;;;;2.80;1.52;;;11.80;99.90;;;;;;4998599;28;20057;-65
2023/05/11 00:07:51;;;;;;;2.72;1.50;;;11.90;99.90;;;;;;5005963;28;20427;-64
2023/05/11 00:10:16;;;;;;;7.50;1.65;;;11.80;99.90;;;;;;4986841;28;20134;-65
2023/05/11 00:12:42;;;;;;;1.35;1.15;;;11.80;99.90;;;;;;5003796;28;20943;-66
2023/05/11 00:15:08;;;;;;;3.88;1.70;;;11.70;99.90;;;;;;5003885;28;20048;-66
2023/05/11 00:17:33;;;;;;;1.58;1.17;;;11.80;99.90;;;;;;5005417;28;20450;-66
2023/05/11 00:19:59;;;;;;;4.15;1.48;;;11.70;99.90;;;;;;5002335;28;20038;-66
2023/05/11 00:22:25;;;;;;;2.30;1.35;;;11.70;99.90;;;;;;4992975;28;20160;-66
2023/05/11 00:24:50;;;;;;;1.75;1.15;;;11.70;99.90;;;;;;5001656;28;20172;-66
2023/05/11 00:27:16;;;;;;;2.22;1.40;;;11.70;99.90;;;;;;4994997;28;20101;-66
2023/05/11 00:29:42;;;;;;;2.25;1.17;;;11.70;99.90;;;;;;5000215;28;20046;-66
2023/05/11 00:32:07;;;;;;;1.60;1.15;;;11.70;99.90;;;;;;5004797;28;20555;-66
2023/05/11 00:34:34;;;;;;;3.88;1.40;;;11.70;99.90;;;;;;5003040;28;20033;-66
2023/05/11 00:36:59;;;;;;;1.80;1.40;;;11.70;99.90;;;;;;5009784;28;20036;-66
2023/05/11 00:39:25;;;;;;;4.60;1.45;;;11.70;99.90;;;;;;5008503;28;20029;-66
2023/05/11 00:41:50;;;;;;;1.45;1.30;;;11.70;99.90;;;;;;4993857;28;20030;-66
2023/05/11 00:44:16;;;;;;;3.38;1.35;;;11.70;99.90;;;;;;5000663;28;20049;-66
2023/05/11 00:46:42;;;;;;;5.18;1.10;;;11.70;99.90;;;;;;5008149;28;20030;-65
2023/05/11 00:49:08;;;;;;;3.92;1.88;;;11.60;99.90;;;;;;5009414;28;20037;-65
2023/05/11 00:51:35;;;;;;;2.88;1.35;;;11.60;99.90;;;;;;4999866;28;20022;-66
2023/05/11 00:54:01;;;;;;;1.63;1.15;;;11.60;99.90;;;;;;5004517;28;20037;-65
2023/05/11 00:56:27;;;;;;;1.70;1.30;;;11.60;99.90;;;;;;5006288;28;20030;-65
2023/05/11 00:58:53;;;;;;;3.45;2.45;;;11.60;99.90;;;;;;5011255;28;20033;-66
2023/05/11 01:01:19;;;;;;;1.80;1.20;;;11.60;99.90;;;;;;5004875;28;20495;-66
2023/05/11 01:03:46;;;;;;;4.43;1.70;;;11.60;99.90;;;;;;5005835;28;20046;-66
2023/05/11 01:06:32;;;;;;;3.17;1.13;;;11.50;99.90;;;;;;5000361;28;20040;-67
2023/05/11 01:09:15;;;;;;;2.17;1.50;;;11.50;99.90;;;;;;5003641;28;20816;-66
2023/05/11 01:12:05;;;;;;;2.40;1.77;;;11.50;99.90;;;;;;4998651;28;20018;-66
2023/05/11 01:14:40;;;;;;;5.10;1.83;;;11.50;99.90;;;;;;4998211;28;20029;-66
2023/05/11 01:17:16;;;;;;;2.55;1.77;;;11.50;99.90;;;;;;5001406;28;20033;-66
2023/05/11 01:20:03;;;;;;;1.73;1.20;;;11.50;99.90;;;;;;5005261;28;20030;-66
2023/05/11 01:23:04;;;;;;;3.22;1.90;;;11.50;99.90;;;;;;5002723;28;20037;-65
2023/05/11 01:26:03;;;;;;;2.50;1.92;;;11.50;99.90;;;;;;4992468;28;20476;-66
2023/05/11 01:28:45;;;;;;;2.55;1.85;;;11.50;99.90;;;;;;5005942;28;20073;-66
2023/05/11 01:31:14;;;;;;;2.67;1.67;;;11.50;99.90;;;;;;5002583;28;20156;-66
2023/05/11 01:33:46;;;;;;;3.05;1.52;;;11.40;99.90;;;;;;5004162;28;20045;-66
2023/05/11 01:36:14;;;;;;;3.42;1.83;;;11.40;99.90;;;;;;5004284;28;20515;-67
2023/05/11 01:38:44;;;;;;;3.58;1.80;;;11.40;99.90;;;;;;5002394;28;20057;-66
2023/05/11 01:41:17;;;;;;;10.68;2.42;;;11.40;99.90;;;;;;5007961;28;20618;-65
2023/05/11 01:43:46;;;;;;;3.85;2.08;;;11.40;99.90;;;;;;5005333;28;20476;-66
2023/05/11 01:46:14;;;;;;;3.20;2.40;;;11.40;99.90;;;;;;5006209;28;20057;-66
2023/05/11 01:48:45;;;;;;;4.15;1.77;;;11.30;99.90;;;;;;5003769;28;20049;-66
2023/05/11 01:51:12;;;;;;;2.83;1.83;;;11.40;99.90;;;;;;5010284;28;20662;-66
2023/05/11 01:53:39;;;;;;;6.60;2.97;;;11.40;99.90;;;;;;5006531;28;20034;-65
2023/05/11 01:56:06;;;;;;;2.65;2.00;;;11.30;99.90;;;;;;5004995;28;20520;-66
2023/05/11 01:58:34;;;;;;;4.60;1.95;;;11.30;99.90;;;;;;5000983;28;20034;-66
2023/05/11 02:01:02;;;;;;;3.72;1.98;;;11.30;99.90;;;;;;5006457;28;20086;-66
2023/05/11 02:03:30;;;;;;;2.92;2.00;;;11.30;99.90;;;;;;5003369;28;20026;-66
2023/05/11 02:05:57;;;;;;;4.18;2.30;;;11.20;99.90;;;;;;5006369;28;20022;-66
2023/05/11 02:08:24;;;;;;;3.25;2.15;;;11.30;99.90;;;;;;4999087;28;20368;-65
2023/05/11 02:10:52;;;;;;;6.10;2.22;;;11.30;99.90;;;;;;5007757;28;20041;-65
2023/05/11 02:13:18;;;;;;;3.50;1.63;;;11.30;99.90;;;;;;5004960;28;20030;-66
2023/05/11 02:15:49;;;;;;;2.33;1.80;;;11.30;99.90;;;;;;5007673;28;20018;-66
2023/05/11 02:18:15;;;;;;;3.78;2.05;;;11.30;99.90;;;;;;4997836;28;20030;-66
2023/05/11 02:20:44;;;;;;;10.25;2.00;;;11.30;99.90;;;;;;5005082;28;20484;-66
2023/05/11 02:23:10;;;;;;;2.40;1.80;;;11.30;99.90;;;;;;5004201;28;20037;-66
2023/05/11 02:25:38;;;;;;;3.83;1.65;;;11.20;99.90;;;;;;4976422;28;20077;-66
2023/05/11 02:28:04;;;;;;;2.30;1.67;;;11.30;99.90;;;;;;4993541;28;20020;-66
2023/05/11 02:30:31;;;;;;;3.97;2.10;;;11.20;99.90;;;;;;5000189;28;20018;-65
2023/05/11 02:33:01;;;;;;;3.38;1.85;;;11.20;99.90;;;;;;5002246;28;20057;-66
2023/05/11 02:35:33;;;;;;;6.93;2.28;;;11.20;99.90;;;;;;4999775;28;20072;-64
2023/05/11 02:38:01;;;;;;;4.10;1.75;;;11.20;99.90;;;;;;5003660;28;20084;-66
2023/05/11 02:40:33;;;;;;;2.55;1.70;;;11.20;99.90;;;;;;5002298;28;20264;-64
2023/05/11 02:43:09;;;;;;;2.33;1.77;;;11.20;99.90;;;;;;5002682;28;20049;-66
2023/05/11 02:45:36;;;;;;;3.20;1.55;;;11.20;99.90;;;;;;5002578;28;20025;-65
2023/05/11 02:48:08;;;;;;;5.13;1.90;;;11.20;99.90;;;;;;5004340;28;21756;-66
2023/05/11 02:50:40;;;;;;;2.92;2.20;;;11.20;99.90;;;;;;5001974;28;20073;-65
2023/05/11 02:53:13;;;;;;;4.82;2.50;;;11.20;99.90;;;;;;5004109;28;20095;-66
2023/05/11 02:55:39;;;;;;;3.92;2.70;;;11.20;99.90;;;;;;5010807;28;20032;-66
2023/05/11 02:58:04;;;;;;;3.00;2.13;;;11.20;99.90;;;;;;5012077;28;20038;-65
2023/05/11 03:00:30;;;;;;;3.20;1.95;;;11.20;99.90;;;;;;5004853;28;20052;-65
2023/05/11 03:02:56;;;;;;;3.40;1.98;;;11.20;99.90;;;;;;5008603;28;20128;-65
2023/05/11 03:05:23;;;;;;;4.90;2.70;;;11.20;99.90;;;;;;5009037;28;20101;-65
2023/05/11 03:07:48;;;;;;;5.70;2.35;;;11.30;99.90;;;;;;5005825;28;20105;-65
2023/05/11 03:10:14;;;;;;;4.15;2.80;;;11.20;99.90;;;;;;5007557;28;20141;-65
2023/05/11 03:12:40;;;;;;;3.00;2.33;;;11.20;99.90;;;;;;5013688;28;20052;-65
2023/05/11 03:15:07;;;;;;;4.72;2.97;;;11.20;99.90;;;;;;5013570;28;20029;-65
2023/05/11 03:17:34;;;;;;;4.38;2.88;;;11.20;99.90;;;;;;5008591;28;20032;-66
2023/05/11 03:20:02;;;;;;;3.97;2.65;;;11.20;99.90;;;;;;5002675;28;20089;-65
2023/05/11 03:22:29;;;;;;;5.00;2.95;;;11.20;99.90;;;;;;5008315;28;20029;-65
2023/05/11 03:24:55;;;;;;;6.90;3.58;;;11.20;99.90;;;;;;5005109;28;20060;-66
2023/05/11 03:27:22;;;;;;;7.20;3.75;;;11.20;99.90;;;;;;4993462;28;20443;-65
2023/05/11 03:29:48;;;;;;;9.18;4.15;;;11.20;99.90;;;;;;5004973;28;20041;-66
2023/05/11 03:32:14;;;;;;;7.85;4.93;;;11.20;99.90;;;;;;4989061;28;20099;-66
2023/05/11 03:34:40;;;;;;;12.32;4.97;;;11.20;99.90;;;;;;5003054;28;20046;-66
2023/05/11 03:37:09;;;;;;;9.63;5.32;;;11.20;99.90;;;;;;5007055;28;20105;-65
2023/05/11 03:39:36;;;;;;;13.38;5.00;;;11.10;99.90;;;;;;5006130;28;20044;-66
2023/05/11 03:42:02;;;;;;;10.23;5.80;;;11.20;99.90;;;;;;5003767;28;20030;-66
2023/05/11 03:44:31;;;;;;;11.75;6.40;;;11.20;99.90;;;;;;5004634;28;20065;-65
2023/05/11 03:46:59;;;;;;;10.50;5.78;;;11.20;99.90;;;;;;5003090;28;20509;-65
2023/05/11 03:49:26;;;;;;;11.20;6.00;;;11.20;99.90;;;;;;5001453;28;20498;-66
2023/05/11 03:51:52;;;;;;;10.00;6.53;;;11.20;99.90;;;;;;5003610;28;20021;-65
2023/05/11 03:54:18;;;;;;;11.32;6.30;;;11.20;99.90;;;;;;5006549;28;20038;-66
2023/05/11 03:56:44;;;;;;;13.77;6.05;;;11.20;99.90;;;;;;4994017;28;20026;-65
2023/05/11 03:59:15;;;;;;;14.63;5.50;;;11.20;99.90;;;;;;5017864;28;20045;-65
2023/05/11 04:01:41;;;;;;;9.65;6.35;;;11.20;99.90;;;;;;5009019;28;20026;-65
2023/05/11 04:04:07;;;;;;;11.32;5.63;;;11.20;99.90;;;;;;5004905;28;20056;-65
2023/05/11 04:06:33;;;;;;;12.23;5.07;;;11.20;99.90;;;;;;5006317;28;20476;-66
2023/05/11 04:08:58;;;;;;;6.88;5.10;;;11.30;99.90;;;;;;5007566;28;20029;-65
2023/05/11 04:11:26;;;;;;;13.38;4.78;;;11.30;99.90;;;;;;5009666;28;20030;-66
2023/05/11 04:13:51;;;;;;;12.00;5.30;;;11.30;99.90;;;;;;5003081;28;20072;-65
2023/05/11 04:16:17;;;;;;;12.57;5.47;;;11.30;99.90;;;;;;5002217;28;20034;-65
2023/05/11 04:18:43;;;;;;;11.80;5.63;;;11.30;99.90;;;;;;5004537;28;20547;-65
2023/05/11 04:21:08;;;;;;;8.13;5.63;;;11.30;99.90;;;;;;5011473;28;20402;-65
2023/05/11 04:23:34;;;;;;;13.68;6.65;;;11.30;99.90;;;;;;5006951;28;20069;-65
2023/05/11 04:25:59;;;;;;;10.23;6.50;;;11.30;99.90;;;;;;5007626;28;20033;-65
2023/05/11 04:28:26;;;;;;;8.07;5.20;;;11.30;99.90;;;;;;5008215;28;20109;-64
2023/05/11 04:30:55;;;;;;;10.93;5.53;;;11.30;99.90;;;;;;4994641;28;20054;-65
2023/05/11 04:33:24;;;;;;;7.57;4.97;;;11.30;99.90;;;;;;5004631;28;20092;-65
2023/05/11 04:35:51;;;;;;;8.13;6.03;;;11.30;99.90;;;;;;5004176;28;20136;-64
2023/05/11 04:38:17;;;;;;;11.90;5.53;;;11.30;99.90;;;;;;5018654;28;20046;-65
2023/05/11 04:40:42;;;;;;;8.52;5.50;;;11.40;99.90;;;;;;5008434;28;20037;-65
2023/05/11 04:43:08;;;;;;;10.13;5.15;;;11.50;99.90;;;;;;5011649;28;20033;-65
2023/05/11 04:45:34;;;;;;;9.40;4.55;;;11.50;99.90;;;;;;5009246;28;20368;-65
2023/05/11 04:47:59;;;;;;;6.80;4.65;;;11.50;99.90;;;;;;5014924;28;20064;-65
2023/05/11 04:50:25;;;;;;;7.60;4.05;;;11.50;99.90;;;;;;5008052;28;20052;-65
2023/05/11 04:52:50;;;;;;;11.13;4.45;;;11.60;99.90;;;;;;5019091;28;20029;-65
2023/05/11 04:55:16;;;;;;;9.55;4.13;;;11.70;99.90;;;;;;5009736;28;20037;-65
2023/05/11 04:57:41;;;;;;;7.97;5.15;;;11.80;99.90;;;;;;5003029;28;20044;-65
2023/05/11 05:00:08;;;;;;;7.07;4.18;;;11.90;99.90;;;;;;5007190;28;20069;-65
2023/05/11 05:02:34;;;;;;;9.52;5.70;;;12.00;99.90;;;;;;5005491;28;20035;-65
2023/05/11 05:05:00;;;;;;;10.82;6.57;;;12.10;99.90;;;;;;5014121;28;20022;-64
2023/05/11 05:07:26;;;;;;;9.93;6.13;;;12.20;99.90;;;;;;5008542;28;20514;-66
2023/05/11 05:09:52;;;;;;;8.05;5.57;;;12.40;99.90;;;;;;5002901;28;20084;-65
2023/05/11 05:12:17;;;;;;;10.55;6.35;;;12.70;99.90;;;;;;5008152;28;20030;-66
2023/05/11 05:14:43;;;;;;;18.00;8.68;;;12.80;99.90;;;;;;5003802;28;20026;-65
2023/05/11 05:17:09;;;;;;;16.15;9.90;;;12.90;99.90;;;;;;5003645;28;20030;-65
2023/05/11 05:19:34;;;;;;;17.17;10.52;;;13.00;99.90;;;;;;5005037;28;20041;-65
2023/05/11 05:22:00;;;;;;;17.65;10.45;;;13.10;99.90;;;;;;5003561;28;20026;-65
2023/05/11 05:24:25;;;;;;;13.40;9.57;;;13.20;99.90;;;;;;5003428;28;20038;-65
2023/05/11 05:26:51;;;;;;;15.38;9.70;;;13.20;99.90;;;;;;4994259;28;20177;-65
2023/05/11 05:29:16;;;;;;;15.02;9.07;;;13.20;99.90;;;;;;5004554;28;20034;-65
2023/05/11 05:31:42;;;;;;;16.60;8.50;;;13.30;99.90;;;;;;4990453;28;20503;-65
2023/05/11 05:34:08;;;;;;;16.85;10.13;;;13.20;99.90;;;;;;5000979;28;20021;-65
2023/05/11 05:36:33;;;;;;;15.93;10.27;;;13.10;99.90;;;;;;5004980;28;20068;-65
2023/05/11 05:38:59;;;;;;;18.50;11.23;;;13.10;99.90;;;;;;4997986;28;20109;-65
2023/05/11 05:41:25;;;;;;;18.30;10.55;;;13.10;99.90;;;;;;5019180;28;20025;-64
2023/05/11 05:43:50;;;;;;;18.60;12.40;;;13.10;99.90;;;;;;5001150;28;20033;-64
2023/05/11 05:46:16;;;;;;;25.20;12.27;;;13.10;99.90;;;;;;5016571;28;20488;-65
2023/05/11 05:48:42;;;;;;;21.73;10.75;;;13.00;99.90;;;;;;5014594;28;20556;-65
2023/05/11 05:51:08;;;;;;;16.08;11.13;;;13.00;99.90;;;;;;5016065;28;20030;-65
2023/05/11 05:53:33;;;;;;;17.88;10.35;;;13.00;99.90;;;;;;5010681;28;20026;-65
2023/05/11 05:55:59;;;;;;;16.27;10.23;;;13.00;99.90;;;;;;5008685;28;20030;-66
2023/05/11 05:58:24;;;;;;;17.40;9.73;;;12.90;99.90;;;;;;5008573;28;20112;-65
2023/05/11 06:00:51;;;;;;;19.90;11.73;;;13.00;99.90;;;;;;5004714;28;20484;-66
2023/05/11 06:03:16;;;;;;;17.15;10.48;;;13.00;99.90;;;;;;5002803;28;20021;-65
2023/05/11 06:05:42;;;;;;;17.10;11.50;;;13.10;99.90;;;;;;5007629;28;20038;-65
2023/05/11 06:08:07;;;;;;;23.10;11.65;;;13.20;99.90;;;;;;5003502;28;20527;-65
2023/05/11 06:10:33;;;;;;;20.30;10.80;;;13.20;99.90;;;;;;5010226;28;20100;-66
2023/05/11 06:12:59;;;;;;;23.10;11.57;;;13.20;99.90;;;;;;5006827;28;20069;-65
2023/05/11 06:15:24;;;;;;;19.40;10.38;;;13.20;99.90;;;;;;5009890;28;20033;-66
2023/05/11 06:17:50;;;;;;;20.45;10.77;;;13.20;99.90;;;;;;5007366;28;20044;-66
2023/05/11 06:20:15;;;;;;;17.73;10.27;;;13.20;99.90;;;;;;5003766;28;20026;-65
2023/05/11 06:22:41;;;;;;;20.45;10.40;;;13.20;99.90;;;;;;5006193;28;20036;-65
2023/05/11 06:25:07;;;;;;;18.83;10.95;;;13.20;99.90;;;;;;5008991;28;20029;-65
2023/05/11 06:27:32;;;;;;;16.48;10.25;;;13.20;99.90;;;;;;5007770;28;20030;-66
2023/05/11 06:29:58;;;;;;;20.75;11.68;;;13.20;99.90;;;;;;5009192;28;20065;-65
2023/05/11 06:32:24;;;;;;;19.15;11.90;;;13.20;99.90;;;;;;4996345;28;20034;-65
2023/05/11 06:34:49;;;;;;;21.77;11.13;;;13.20;99.90;;;;;;5008879;28;20033;-65
2023/05/11 06:37:19;;;;;;;24.58;13.02;;;13.20;99.90;;;;;;5006982;28;20026;-65
2023/05/11 06:39:46;;;;;;;18.55;12.40;;;13.30;99.90;;;;;;5009599;28;20033;-65
2023/05/11 06:42:11;;;;;;;18.80;12.10;;;13.40;99.90;;;;;;5002762;28;20087;-66
2023/05/11 06:44:38;;;;;;;19.50;12.23;;;13.50;99.90;;;;;;5018907;28;20033;-65
2023/05/11 06:47:04;;;;;;;17.42;12.52;;;13.70;99.90;;;;;;5008112;28;20496;-66
2023/05/11 06:49:30;;;;;;;20.67;11.40;;;13.80;99.90;;;;;;5011309;28;20052;-66
2023/05/11 06:51:55;;;;;;;18.33;11.60;;;13.90;99.90;;;;;;5005769;28;20484;-65
2023/05/11 06:54:21;;;;;;;22.00;12.95;;;14.20;99.90;;;;;;5016309;28;20487;-66
2023/05/11 06:56:47;;;;;;;22.13;11.45;;;14.30;99.90;;;;;;5015374;28;20030;-66
2023/05/11 06:59:12;;;;;;;14.52;9.27;;;14.70;99.90;;;;;;5009293;28;20038;-66
2023/05/11 07:01:38;;;;;;;16.08;10.95;;;15.00;99.90;;;;;;5000379;28;20036;-66
2023/05/11 07:04:04;;;;;;;16.00;9.98;;;15.20;99.90;;;;;;5000292;28;20152;-66
2023/05/11 07:06:29;;;;;;;13.43;9.20;;;15.30;99.90;;;;;;5007023;28;20018;-67
2023/05/11 07:08:55;;;;;;;13.65;9.27;;;15.40;99.90;;;;;;5007375;28;20026;-67
2023/05/11 07:11:21;;;;;;;16.10;10.27;;;15.50;99.90;;;;;;5023540;28;20108;-67
2023/05/11 07:13:47;;;;;;;15.88;9.88;;;15.80;99.90;;;;;;5017437;28;20046;-67
2023/05/11 07:16:12;;;;;;;17.33;9.63;;;15.90;99.90;;;;;;5010909;28;20431;-67
2023/05/11 07:18:38;;;;;;;17.15;9.85;;;15.80;99.90;;;;;;5017499;28;20121;-66
2023/05/11 07:21:03;;;;;;;21.33;9.75;;;15.60;99.90;;;;;;5003549;28;20028;-66
2023/05/11 07:23:29;;;;;;;16.20;10.85;;;15.60;99.90;;;;;;5004810;28;20096;-65
2023/05/11 07:25:56;;;;;;;15.15;9.68;;;15.50;99.90;;;;;;5020535;28;20055;-68
2023/05/11 07:28:22;;;;;;;15.57;10.68;;;15.30;99.90;;;;;;5008116;28;20033;-67
2023/05/11 07:30:48;;;;;;;17.65;10.60;;;15.20;99.90;;;;;;5005758;28;20045;-67
2023/05/11 07:33:13;;;;;;;21.10;11.93;;;15.30;99.90;;;;;;4980982;28;20084;-67
2023/05/11 07:35:39;;;;;;;15.50;11.10;;;15.30;99.90;;;;;;5006289;28;20030;-67
2023/05/11 07:38:06;;;;;;;19.17;10.52;;;15.30;99.90;;;;;;5008276;28;20391;-67
2023/05/11 07:40:33;;;;;;;14.98;9.73;;;15.30;99.90;;;;;;5005225;28;20103;-67
2023/05/11 07:42:59;;;;;;;16.88;9.73;;;15.40;99.90;;;;;;5007692;28;20052;-67
2023/05/11 07:45:24;;;;;;;18.52;10.52;;;15.50;99.90;;;;;;5008751;28;20480;-68
2023/05/11 07:47:50;;;;;;;16.02;10.73;;;15.50;99.90;;;;;;5006272;28;20038;-67
2023/05/11 07:50:16;;;;;;;19.00;10.73;;;15.40;99.90;;;;;;5009029;28;20029;-67
2023/05/11 07:52:41;;;;;;;16.90;10.35;;;15.30;99.90;;;;;;5007803;28;20030;-68
2023/05/11 07:55:07;;;;;;;16.88;10.63;;;15.10;99.90;;;;;;5008929;28;20025;-67
2023/05/11 07:57:33;;;;;;;18.38;10.63;;;15.00;99.90;;;;;;5005238;28;20034;-67
2023/05/11 07:59:58;;;;;;;18.95;11.05;;;15.00;99.90;;;;;;5007073;28;20404;-67
2023/05/11 08:02:24;;;;;;;18.83;11.35;;;14.80;99.90;;;;;;5007754;28;20088;-68
2023/05/11 08:04:49;;;;;;;20.98;12.52;;;14.70;99.90;;;;;;5004754;28;20490;-67
2023/05/11 08:07:15;;;;;;;20.27;12.52;;;14.60;99.90;;;;;;5011866;28;20019;-68
2023/05/11 08:09:41;;;;;;;21.75;12.25;;;14.50;99.90;;;;;;5009556;28;20022;-67
2023/05/11 08:12:08;;;;;;;20.58;11.95;;;14.40;99.90;;;;;;5004401;28;20034;-66
2023/05/11 08:14:33;;;;;;;17.40;12.27;;;14.30;99.90;;;;;;5003421;28;20502;-67
2023/05/11 08:16:59;;;;;;;22.35;13.57;;;14.30;99.90;;;;;;5009769;28;20034;-67
2023/05/11 08:19:24;;;;;;;20.02;11.95;;;14.30;99.90;;;;;;5013078;28;20026;-66
2023/05/11 08:21:50;;;;;;;20.15;12.85;;;14.40;99.90;;;;;;5009878;28;20030;-67
2023/05/11 08:24:15;;;;;;;18.00;10.98;;;14.60;99.90;;;;;;5007051;28;20037;-66
2023/05/11 08:26:41;;;;;;;15.30;10.55;;;14.80;99.90;;;;;;5009859;28;20034;-67
2023/05/11 08:29:07;;;;;;;19.48;10.57;;;15.00;99.90;;;;;;5008060;28;20026;-67
2023/05/11 08:31:32;;;;;;;18.17;11.68;;;15.30;99.90;;;;;;5007129;28;20080;-67
2023/05/11 08:33:58;;;;;;;19.45;11.32;;;15.50;99.90;;;;;;4995883;28;20512;-66
2023/05/11 08:36:23;;;;;;;14.75;9.93;;;15.80;99.90;;;;;;5007911;28;20153;-67
2023/05/11 08:38:49;;;;;;;15.30;9.52;;;16.00;99.90;;;;;;5017988;28;20033;-67
2023/05/11 08:41:15;;;;;;;14.98;9.52;;;16.20;99.90;;;;;;5009345;28;20117;-66
2023/05/11 08:43:42;;;;;;;11.18;7.50;;;16.60;99.90;;;;;;5004811;28;20448;-67
2023/05/11 08:46:11;;;;;;;16.20;10.13;;;16.80;99.90;;;;;;4995355;28;20030;-67
2023/05/11 08:48:36;;;;;;;13.82;8.68;;;17.00;99.90;;;;;;5005653;28;20106;-67
2023/05/11 08:51:03;;;;;;;14.80;9.00;;;17.30;99.90;;;;;;5011622;28;20579;-67
2023/05/11 08:53:28;;;;;;;16.77;8.68;;;17.70;99.90;;;;;;5006613;28;20030;-67
2023/05/11 08:55:57;;;;;;;13.02;8.18;;;17.80;99.90;;;;;;5008335;28;20105;-66
2023/05/11 08:58:23;;;;;;;21.63;9.55;;;18.20;99.90;;;;;;5010622;28;20061;-68
2023/05/11 09:00:50;;;;;;;12.25;7.68;;;18.70;99.90;;;;;;5007755;28;20037;-67
2023/05/11 09:03:19;;;;;;;9.50;6.60;;;19.10;99.90;;;;;;5009569;28;20057;-68
2023/05/11 09:05:45;;;;;;;14.68;7.18;;;18.90;99.90;;;;;;5008708;28;20052;-67
2023/05/11 09:08:12;;;;;;;9.23;5.97;;;19.10;99.90;;;;;;5010219;28;20428;-64
2023/05/11 09:10:38;;;;;;;7.38;5.28;;;19.20;99.90;;;;;;5017569;28;20495;-67
2023/05/11 09:13:04;;;;;;;8.80;6.15;;;19.30;99.90;;;;;;5014526;28;20033;-65
2023/05/11 09:15:30;;;;;;;9.23;5.10;;;20.40;99.90;;;;;;5005070;28;20026;-65
2023/05/11 09:17:56;;;;;;;9.95;6.53;;;20.60;99.90;;;;;;5002359;28;20408;-64
2023/05/11 09:20:30;;;;;;;10.10;6.88;;;20.90;99.90;;;;;;5021263;28;20022;-65
2023/05/11 09:22:57;;;;;;;13.52;8.07;;;20.50;99.90;;;;;;5007553;28;20443;-64
2023/05/11 09:25:23;;;;;;;10.73;7.43;;;19.60;99.90;;;;;;5015964;28;20753;-64
2023/05/11 09:27:49;;;;;;;8.57;6.35;;;18.90;99.90;;;;;;5010890;28;20033;-65
2023/05/11 09:30:20;;;;;;;10.23;6.70;;;18.60;99.90;;;;;;5004259;28;20029;-67
2023/05/11 09:32:53;;;;;;;11.68;6.88;;;18.60;99.90;;;;;;5003493;28;20519;-68
2023/05/11 09:35:36;;;;;;;10.25;8.40;;;18.10;99.90;;;;;;5031231;28;20029;-67
2023/05/11 09:38:10;;;;;;;9.88;7.05;;;17.70;99.90;;;;;;5020709;28;20057;-67
2023/05/11 09:40:36;;;;;;;;;;;17.90;99.90;;;;;;5009437;28;20478;-66
2023/05/11 09:43:15;;;;;;;13.48;7.35;;;18.20;99.90;;;;;;5004798;28;20370;-65
2023/05/11 09:45:42;;;;;;;10.93;6.68;;;18.30;99.90;;;;;;5009024;28;20018;-67
2023/05/11 09:48:20;;;;;;;10.68;6.45;;;18.20;99.90;;;;;;5006710;28;20105;-67
2023/05/11 09:50:50;;;;;;;8.52;6.28;;;18.60;99.90;;;;;;5009417;28;20065;-66
2023/05/11 09:53:16;;;;;;;12.35;7.05;;;19.10;99.90;;;;;;5004213;28;20084;-67
2023/05/11 09:55:55;;;;;;;11.98;6.63;;;19.50;99.90;;;;;;4997145;28;20030;-67
2023/05/11 09:58:21;;;;;;;8.40;6.80;;;19.80;99.90;;;;;;5000009;28;20479;-67
2023/05/11 10:00:50;;;;;;;9.07;6.32;;;19.80;99.90;;;;;;5006075;28;20072;-67
2023/05/11 10:03:16;;;;;;;11.43;7.35;;;19.90;99.90;;;;;;5004802;28;20032;-67
2023/05/11 10:05:55;;;;;;;14.45;6.18;;;20.00;99.90;;;;;;5002917;28;20022;-67
2023/05/11 10:08:29;;;;;;;8.93;6.90;;;20.30;99.90;;;;;;5007284;28;20413;-66
2023/05/11 10:10:55;;;;;;;9.93;7.10;;;19.80;99.90;;;;;;5005019;28;20026;-66
2023/05/11 10:13:22;;;;;;;10.18;6.80;;;19.80;99.90;;;;;;5002540;28;20631;-67
2023/05/11 10:15:51;;;;;;;10.05;7.07;;;20.00;99.90;;;;;;5001366;28;20034;-67
2023/05/11 10:18:17;;;;;;;11.95;7.97;;;19.70;99.90;;;;;;5001819;28;20109;-67
2023/05/11 10:20:43;;;;;;;10.88;7.47;;;19.30;99.90;;;;;;5010268;28;20456;-67
2023/05/11 10:23:10;;;;;;;9.82;6.90;;;19.50;99.90;;;;;;5006786;28;20391;-67
2023/05/11 10:25:37;;;;;;;11.82;7.97;;;19.80;99.90;;;;;;5005448;28;20109;-67
2023/05/11 10:28:03;;;;;;;11.52;7.32;;;19.70;99.90;;;;;;5007299;28;20030;-67
2023/05/11 10:30:30;;;;;;;11.82;7.72;;;19.90;99.90;;;;;;5006636;28;20502;-67
2023/05/11 10:32:56;;;;;;;12.02;7.97;;;20.00;99.90;;;;;;5014514;28;20026;-66
2023/05/11 10:35:22;;;;;;;11.00;6.57;;;20.00;98.90;;;;;;5005510;28;20049;-66
2023/05/11 10:37:49;;;;;;;10.75;7.53;;;20.20;98.20;;;;;;5005746;28;20076;-67
2023/05/11 10:40:15;;;;;;;8.85;6.85;;;20.60;97.80;;;;;;5019561;28;20404;-67
2023/05/11 10:42:59;;;;;;;10.32;6.65;;;20.20;99.90;;;;;;5021961;28;20082;-67
2023/05/11 10:45:50;;;;;;;11.57;7.95;;;19.80;99.90;;;;;;5018678;28;20464;-67
2023/05/11 10:48:34;;;;;;;11.75;7.05;;;19.50;99.90;;;;;;5000343;28;20034;-68
2023/05/11 10:51:37;;;;;;;12.18;7.93;;;19.50;99.90;;;;;;5007174;28;20029;-67
2023/05/11 10:54:06;;;;;;;12.50;7.30;;;19.40;99.90;;;;;;5024120;28;20030;-68
2023/05/11 10:57:15;;;;;;;9.40;6.75;;;19.20;99.90;;;;;;5001991;28;20026;-67
2023/05/11 11:00:17;;;;;;;14.20;7.38;;;19.30;99.90;;;;;;4983812;28;20080;-67
2023/05/11 11:02:44;;;;;;;10.05;6.78;;;19.20;99.90;;;;;;5000816;28;20030;-67
2023/05/11 11:05:15;;;;;;;12.07;5.80;;;19.40;99.90;;;;;;5006689;28;20033;-67
2023/05/11 11:08:02;;;;;;;8.63;6.07;;;19.70;99.90;;;;;;5023848;28;20471;-67
2023/05/11 11:10:48;;;;;;;10.13;6.25;;;20.00;99.60;;;;;;5011385;28;20025;-67
2023/05/11 11:13:15;;;;;;;9.35;5.50;;;20.10;99.90;;;;;;4996701;28;20634;-67
2023/05/11 11:15:53;;;;;;;8.60;5.43;;;20.30;99.90;;;;;;5003694;28;20151;-67
2023/05/11 11:18:22;;;;;;;11.00;6.07;;;20.90;99.80;;;;;;5011584;28;20121;-67
2023/05/11 11:20:51;;;;;;;7.55;5.65;;;21.40;97.30;;;;;;5011355;28;20168;-68
2023/05/11 11:23:38;;;;;;;9.65;5.82;;;20.90;97.50;;;;;;5007072;28;20030;-67
2023/05/11 11:26:04;;;;;;;8.60;4.97;;;20.90;98.60;;;;;;5018385;28;20030;-68
2023/05/11 11:29:03;;;;;;;8.18;5.68;;;20.90;97.70;;;;;;5012478;28;20113;-67
2023/05/11 11:31:31;;;;;;;6.43;4.25;;;20.80;97.80;;;;;;5008809;28;20077;-68
2023/05/11 11:33:59;;;;;;;15.70;5.80;;;20.70;98.70;;;;;;4995671;28;20080;-68
2023/05/11 11:36:53;;;;;;;9.32;5.53;;;20.30;99.10;;;;;;5013243;28;20085;-68
2023/05/11 11:39:20;;;;;;;9.27;5.63;;;20.40;99.90;;;;;;5004044;28;20036;-67
2023/05/11 11:42:01;;;;;;;8.05;5.00;;;20.00;99.50;;;;;;5006186;28;20034;-67
2023/05/11 11:44:27;;;;;;;13.93;6.72;;;19.60;99.90;;;;;;5002641;28;20487;-67
2023/05/11 11:47:19;;;;;;;11.70;6.78;;;19.00;99.90;;;;;;5004051;28;20128;-67
2023/05/11 11:49:46;;;;;;;10.30;6.20;;;18.60;99.90;;;;;;5006214;28;20022;-67
2023/05/11 11:52:12;;;;;;;12.55;7.38;;;18.50;99.90;;;;;;5001162;28;20037;-67
2023/05/11 11:54:40;;;;;;;9.82;6.93;;;18.40;99.90;;;;;;5006006;28;20184;-68
2023/05/11 11:57:28;;;;;;;10.32;6.57;;;18.30;99.90;;;;;;5004543;28;20038;-67
2023/05/11 11:59:54;;;;;;;13.85;6.88;;;18.20;99.90;;;;;;5002328;28;20455;-67
2023/05/11 12:02:21;;;;;;;9.85;6.47;;;18.50;99.90;;;;;;5004410;28;20029;-67
2023/05/11 12:05:06;;;;;;;7.90;6.00;;;18.20;99.90;;;;;;5002198;28;20030;-67
2023/05/11 12:07:33;;;;;;;8.35;6.15;;;18.20;99.90;;;;;;5005160;28;20026;-67
2023/05/11 12:10:02;;;;;;;8.50;6.15;;;18.10;99.90;;;;;;5001932;28;20026;-67
2023/05/11 12:12:30;;;;;;;12.95;6.25;;;18.10;99.90;;;;;;5003509;28;20157;-67
2023/05/11 12:14:56;;;;;;;11.90;6.35;;;18.00;99.90;;;;;;5002687;28;20060;-67
2023/05/11 12:17:28;;;;;;;9.70;6.93;;;18.20;99.90;;;;;;5005568;28;20036;-66
2023/05/11 12:19:54;;;;;;;10.65;5.32;;;18.30;99.90;;;;;;5000052;28;20418;-67
2023/05/11 12:22:24;;;;;;;7.78;4.93;;;18.10;99.90;;;;;;5003314;28;20026;-66
2023/05/11 12:24:53;;;;;;;9.35;5.68;;;18.40;99.90;;;;;;5003780;28;20408;-67
2023/05/11 12:27:19;;;;;;;13.55;6.53;;;18.40;99.90;;;;;;5004255;28;20152;-66
2023/05/11 12:29:51;;;;;;;11.43;6.63;;;18.50;99.90;;;;;;5004000;28;20029;-66
2023/05/11 12:32:30;;;;;;;9.05;6.38;;;18.60;99.90;;;;;;5003985;28;20030;-67
2023/05/11 12:35:00;;;;;;;7.97;6.05;;;18.50;99.90;;;;;;4992816;28;20099;-67
2023/05/11 12:37:26;;;;;;;10.27;5.80;;;18.40;99.90;;;;;;5002475;28;20034;-67
2023/05/11 12:39:56;;;;;;;9.10;5.55;;;18.70;99.90;;;;;;5004882;28;20030;-67
2023/05/11 12:42:21;;;;;;;7.43;5.22;;;18.90;99.90;;;;;;5001624;28;20026;-68
2023/05/11 12:44:47;;;;;;;7.82;5.82;;;19.10;99.90;;;;;;5002929;28;20037;-66
2023/05/11 12:47:13;;;;;;;10.80;6.30;;;19.30;99.90;;;;;;5002358;28;20423;-67